createdAt,value
2022-11-20T00:00:01.720Z,-1.61
2022-11-20T00:01:02.520Z,-1.61
2022-11-20T00:02:01.795Z,-1.62
2022-11-20T00:03:01.752Z,-1.64
2022-11-20T00:04:01.730Z,-1.62
2022-11-20T00:05:01.706Z,-1.63
2022-11-20T00:06:01.923Z,-1.64
2022-11-20T00:07:01.738Z,-1.66
2022-11-20T00:08:01.618Z,-1.67
2022-11-20T00:09:03.125Z,-1.67
2022-11-20T00:10:02.318Z,-1.68
2022-11-20T00:11:02.558Z,-1.70
2022-11-20T00:12:02.558Z,-1.71
2022-11-20T00:13:01.598Z,-1.71
2022-11-20T00:14:01.570Z,-1.72
2022-11-20T00:15:03.018Z,-1.73
2022-11-20T00:16:02.479Z,-1.73
2022-11-20T00:17:02.629Z,-1.74
2022-11-20T00:18:01.526Z,-1.74
2022-11-20T00:19:01.581Z,-1.74
2022-11-20T00:20:02.416Z,-1.75
2022-11-20T00:21:02.909Z,-1.76
2022-11-20T00:22:02.869Z,-1.77
2022-11-20T00:23:02.982Z,-1.78
2022-11-20T00:24:02.369Z,-1.78
2022-11-20T00:25:02.859Z,-1.79
2022-11-20T00:26:02.347Z,-1.80
2022-11-20T00:27:02.360Z,-1.80
2022-11-20T00:28:02.828Z,-1.80
2022-11-20T00:29:01.451Z,-1.80
2022-11-20T00:30:02.802Z,-1.80
2022-11-20T00:31:01.975Z,-1.80
2022-11-20T00:32:02.279Z,-1.79
2022-11-20T00:33:02.303Z,-1.77
2022-11-20T00:34:02.320Z,-1.78
2022-11-20T00:35:02.278Z,-1.77
2022-11-20T00:36:02.762Z,-1.76
2022-11-20T00:37:02.723Z,-1.77
2022-11-20T00:38:02.729Z,-1.76
2022-11-20T00:39:02.290Z,-1.77
2022-11-20T00:40:02.762Z,-1.76
2022-11-20T00:41:02.213Z,-1.77
2022-11-20T00:42:02.225Z,-1.76
2022-11-20T00:43:02.201Z,-1.76
2022-11-20T00:44:02.151Z,-1.75
2022-11-20T00:45:02.642Z,-1.75
2022-11-20T00:46:02.670Z,-1.75
2022-11-20T00:47:02.637Z,-1.75
2022-11-20T00:48:02.251Z,-1.75
2022-11-20T00:49:01.950Z,-1.75
2022-11-20T00:50:01.142Z,-1.75
2022-11-20T00:51:02.611Z,-1.76
2022-11-20T00:52:02.651Z,-1.77
2022-11-20T00:53:01.126Z,-1.77
2022-11-20T00:54:02.552Z,-1.78
2022-11-20T00:55:01.082Z,-1.76
2022-11-20T00:56:02.531Z,-1.77
2022-11-20T00:57:02.514Z,-1.76
2022-11-20T00:58:04.495Z,-1.77
2022-11-20T00:59:02.501Z,-1.79
2022-11-20T01:00:01.045Z,-1.78
2022-11-20T01:01:02.523Z,-1.79
2022-11-20T01:02:01.032Z,-1.80
2022-11-20T01:03:02.482Z,-1.80
2022-11-20T01:04:02.464Z,-1.80
2022-11-20T01:05:01.744Z,-1.82
2022-11-20T01:06:00.997Z,-1.83
2022-11-20T01:07:02.454Z,-1.84
2022-11-20T01:08:01.012Z,-1.85
2022-11-20T01:09:00.971Z,-1.87
2022-11-20T01:10:00.971Z,-1.87
2022-11-20T01:11:02.362Z,-1.87
2022-11-20T01:12:00.958Z,-1.88
2022-11-20T01:13:00.905Z,-1.89
2022-11-20T01:14:00.893Z,-1.89
2022-11-20T01:15:00.894Z,-1.89
2022-11-20T01:16:02.359Z,-1.90
2022-11-20T01:17:00.864Z,-1.90
2022-11-20T01:18:02.304Z,-1.89
2022-11-20T01:19:00.848Z,-1.92
2022-11-20T01:20:02.276Z,-1.92
2022-11-20T01:21:00.844Z,-1.91
2022-11-20T01:22:01.773Z,-1.93
2022-11-20T01:23:00.813Z,-1.93
2022-11-20T01:24:00.804Z,-1.95
2022-11-20T01:25:00.805Z,-1.95
2022-11-20T01:26:00.984Z,-1.95
2022-11-20T01:27:00.814Z,-1.96
2022-11-20T01:28:02.207Z,-1.96
2022-11-20T01:29:02.225Z,-1.98
2022-11-20T01:30:01.390Z,-1.99
2022-11-20T01:31:02.164Z,-2.02
2022-11-20T01:32:00.724Z,-2.03
2022-11-20T01:33:01.677Z,-2.04
2022-11-20T01:34:00.704Z,-2.06
2022-11-20T01:35:02.114Z,-2.07
2022-11-20T01:36:02.145Z,-2.08
2022-11-20T01:37:00.715Z,-2.10
2022-11-20T01:38:00.814Z,-2.10
2022-11-20T01:39:02.085Z,-2.12
2022-11-20T01:40:01.567Z,-2.13
2022-11-20T01:41:00.609Z,-2.14
2022-11-20T01:42:03.508Z,-2.16
2022-11-20T01:43:00.612Z,-2.16
2022-11-20T01:44:00.593Z,-2.17
2022-11-20T01:45:02.038Z,-2.17
2022-11-20T01:46:00.568Z,-2.17
2022-11-20T01:47:01.466Z,-2.18
2022-11-20T01:48:01.988Z,-2.18
2022-11-20T01:49:01.988Z,-2.19
2022-11-20T01:50:01.964Z,-2.21
2022-11-20T01:51:00.558Z,-2.22
2022-11-20T01:52:00.496Z,-2.24
2022-11-20T01:53:01.956Z,-2.24
2022-11-20T01:54:01.937Z,-2.25
2022-11-20T01:55:00.487Z,-2.26
2022-11-20T01:56:01.918Z,-2.27
2022-11-20T01:57:01.995Z,-2.27
2022-11-20T01:58:00.474Z,-2.28
2022-11-20T01:59:01.900Z,-2.28
2022-11-20T02:00:01.393Z,-2.29
2022-11-20T02:01:01.925Z,-2.30
2022-11-20T02:02:01.839Z,-2.31
2022-11-20T02:03:01.328Z,-2.32
2022-11-20T02:04:00.377Z,-2.33
2022-11-20T02:05:01.305Z,-2.33
2022-11-20T02:06:00.338Z,-2.33
2022-11-20T02:07:01.361Z,-2.34
2022-11-20T02:08:01.777Z,-2.35
2022-11-20T02:09:00.529Z,-2.34
2022-11-20T02:10:01.268Z,-2.36
2022-11-20T02:11:00.318Z,-2.35
2022-11-20T02:12:01.744Z,-2.35
2022-11-20T02:13:01.238Z,-2.35
2022-11-20T02:14:00.396Z,-2.34
2022-11-20T02:15:01.189Z,-2.34
2022-11-20T02:16:01.168Z,-2.34
2022-11-20T02:17:00.352Z,-2.34
2022-11-20T02:18:01.198Z,-2.34
2022-11-20T02:19:01.583Z,-2.33
2022-11-20T02:20:01.170Z,-2.34
2022-11-20T02:21:01.667Z,-2.34
2022-11-20T02:22:01.112Z,-2.34
2022-11-20T02:23:01.670Z,-2.33
2022-11-20T02:24:01.099Z,-2.34
2022-11-20T02:25:00.159Z,-2.34
2022-11-20T02:26:01.109Z,-2.35
2022-11-20T02:27:00.339Z,-2.36
2022-11-20T02:28:00.160Z,-2.37
2022-11-20T02:29:00.120Z,-2.37
2022-11-20T02:30:01.570Z,-2.38
2022-11-20T02:31:01.008Z,-2.38
2022-11-20T02:32:01.059Z,-2.40
2022-11-20T02:33:01.528Z,-2.40
2022-11-20T02:34:00.988Z,-2.40
2022-11-20T02:35:00.429Z,-2.40
2022-11-20T02:36:01.463Z,-2.41
2022-11-20T02:37:01.568Z,-2.41
2022-11-20T02:38:00.939Z,-2.41
2022-11-20T02:39:00.949Z,-2.42
2022-11-20T02:40:01.431Z,-2.42
2022-11-20T02:41:00.940Z,-2.43
2022-11-20T02:42:01.392Z,-2.44
2022-11-20T02:43:02.824Z,-2.42
2022-11-20T02:44:00.882Z,-2.42
2022-11-20T02:45:00.873Z,-2.42
2022-11-20T02:46:00.853Z,-2.42
2022-11-20T02:47:00.852Z,-2.42
2022-11-20T02:47:59.913Z,-2.41
2022-11-20T02:49:00.874Z,-2.40
2022-11-20T02:50:01.329Z,-2.39
2022-11-20T02:51:01.321Z,-2.39
2022-11-20T02:52:00.889Z,-2.38
2022-11-20T02:53:01.311Z,-2.38
2022-11-20T02:54:01.802Z,-2.39
2022-11-20T02:55:00.895Z,-2.39
2022-11-20T02:56:00.782Z,-2.39
2022-11-20T02:57:00.769Z,-2.39
2022-11-20T02:58:01.260Z,-2.38
2022-11-20T02:59:00.732Z,-2.39
2022-11-20T03:00:01.213Z,-2.39
2022-11-20T03:01:00.762Z,-2.39
2022-11-20T03:02:01.181Z,-2.40
2022-11-20T03:03:00.115Z,-2.40
2022-11-20T03:04:01.674Z,-2.40
2022-11-20T03:05:01.200Z,-2.40
2022-11-20T03:06:01.154Z,-2.41
2022-11-20T03:07:00.736Z,-2.41
2022-11-20T03:08:01.143Z,-2.41
2022-11-20T03:09:01.147Z,-2.41
2022-11-20T03:10:01.601Z,-2.41
2022-11-20T03:11:00.633Z,-2.42
2022-11-20T03:12:01.582Z,-2.43
2022-11-20T03:13:01.221Z,-2.44
2022-11-20T03:14:01.572Z,-2.45
2022-11-20T03:15:01.163Z,-2.46
2022-11-20T03:16:01.541Z,-2.47
2022-11-20T03:17:01.342Z,-2.48
2022-11-20T03:18:00.552Z,-2.48
2022-11-20T03:19:01.542Z,-2.48
2022-11-20T03:20:01.504Z,-2.49
2022-11-20T03:21:00.593Z,-2.49
2022-11-20T03:22:01.491Z,-2.49
2022-11-20T03:23:01.015Z,-2.49
2022-11-20T03:23:59.533Z,-2.50
2022-11-20T03:25:01.572Z,-2.50
2022-11-20T03:26:00.971Z,-2.50
2022-11-20T03:27:01.433Z,-2.51
2022-11-20T03:28:01.435Z,-2.51
2022-11-20T03:29:01.426Z,-2.49
2022-11-20T03:30:01.402Z,-2.51
2022-11-20T03:31:00.531Z,-2.50
2022-11-20T03:32:00.407Z,-2.51
2022-11-20T03:33:00.705Z,-2.51
2022-11-20T03:34:01.388Z,-2.52
2022-11-20T03:35:00.877Z,-2.53
2022-11-20T03:36:02.262Z,-2.54
2022-11-20T03:37:00.491Z,-2.56
2022-11-20T03:38:01.333Z,-2.56
2022-11-20T03:39:01.334Z,-2.56
2022-11-20T03:40:00.342Z,-2.58
2022-11-20T03:41:01.323Z,-2.59
2022-11-20T03:42:01.294Z,-2.58
2022-11-20T03:43:02.213Z,-2.60
2022-11-20T03:44:01.283Z,-2.60
2022-11-20T03:45:01.276Z,-2.60
2022-11-20T03:46:01.233Z,-2.61
2022-11-20T03:47:00.773Z,-2.62
2022-11-20T03:48:01.266Z,-2.62
2022-11-20T03:49:00.725Z,-2.64
2022-11-20T03:50:01.234Z,-2.64
2022-11-20T03:51:00.224Z,-2.66
2022-11-20T03:52:01.198Z,-2.68
2022-11-20T03:53:01.179Z,-2.67
2022-11-20T03:54:01.266Z,-2.68
2022-11-20T03:55:00.164Z,-2.69
2022-11-20T03:56:01.134Z,-2.69
2022-11-20T03:57:01.148Z,-2.70
2022-11-20T03:58:01.124Z,-2.70
2022-11-20T03:59:02.008Z,-2.71
2022-11-20T04:00:00.616Z,-2.72
2022-11-20T04:01:01.095Z,-2.72
2022-11-20T04:02:01.125Z,-2.72
2022-11-20T04:03:00.557Z,-2.72
2022-11-20T04:04:01.055Z,-2.73
2022-11-20T04:05:00.047Z,-2.73
2022-11-20T04:06:01.078Z,-2.72
2022-11-20T04:07:01.057Z,-2.72
2022-11-20T04:08:00.515Z,-2.73
2022-11-20T04:09:01.006Z,-2.72
2022-11-20T04:10:01.007Z,-2.72
2022-11-20T04:11:01.884Z,-2.73
2022-11-20T04:12:01.008Z,-2.74
2022-11-20T04:13:00.975Z,-2.76
2022-11-20T04:14:00.965Z,-2.76
2022-11-20T04:15:00.959Z,-2.76
2022-11-20T04:16:00.935Z,-2.76
2022-11-20T04:17:00.425Z,-2.76
2022-11-20T04:18:00.957Z,-2.76
2022-11-20T04:19:00.047Z,-2.77
2022-11-20T04:19:59.943Z,-2.77
2022-11-20T04:21:00.857Z,-2.77
2022-11-20T04:21:59.868Z,-2.78
2022-11-20T04:23:00.356Z,-2.80
2022-11-20T04:24:01.861Z,-2.81
2022-11-20T04:24:59.825Z,-2.82
2022-11-20T04:26:00.326Z,-2.83
2022-11-20T04:27:00.806Z,-2.84
2022-11-20T04:28:00.807Z,-2.84
2022-11-20T04:29:00.306Z,-2.84
2022-11-20T04:30:00.542Z,-2.85
2022-11-20T04:31:00.804Z,-2.85
2022-11-20T04:31:59.784Z,-2.85
2022-11-20T04:33:00.747Z,-2.87
2022-11-20T04:34:00.762Z,-2.86
2022-11-20T04:35:00.749Z,-2.87
2022-11-20T04:36:00.848Z,-2.88
2022-11-20T04:36:59.730Z,-2.89
2022-11-20T04:37:59.725Z,-2.90
2022-11-20T04:38:59.708Z,-2.91
2022-11-20T04:39:59.696Z,-2.91
2022-11-20T04:40:59.666Z,-2.91
2022-11-20T04:42:00.767Z,-2.93
2022-11-20T04:42:59.683Z,-2.92
2022-11-20T04:43:59.646Z,-2.94
2022-11-20T04:45:00.679Z,-2.94
2022-11-20T04:46:00.622Z,-2.95
2022-11-20T04:46:59.617Z,-2.96
2022-11-20T04:47:59.633Z,-2.96
2022-11-20T04:48:59.588Z,-2.98
2022-11-20T04:49:59.592Z,-2.99
2022-11-20T04:51:00.060Z,-3.00
2022-11-20T04:51:59.575Z,-3.01
2022-11-20T04:52:59.550Z,-3.02
2022-11-20T04:54:01.587Z,-3.04
2022-11-20T04:54:59.544Z,-3.04
2022-11-20T04:55:59.802Z,-3.06
2022-11-20T04:57:00.517Z,-3.07
2022-11-20T04:57:59.488Z,-3.08
2022-11-20T04:58:59.487Z,-3.09
2022-11-20T05:00:00.037Z,-3.11
2022-11-20T05:00:59.438Z,-3.10
2022-11-20T05:01:59.495Z,-3.10
2022-11-20T05:02:59.951Z,-3.11
2022-11-20T05:03:59.424Z,-3.11
2022-11-20T05:04:59.430Z,-3.10
2022-11-20T05:05:58.510Z,-3.11
2022-11-20T05:06:58.481Z,-3.10
2022-11-20T05:08:00.410Z,-3.11
2022-11-20T05:08:59.393Z,-3.11
2022-11-20T05:09:59.369Z,-3.12
2022-11-20T05:10:58.431Z,-3.13
2022-11-20T05:11:59.360Z,-3.12
2022-11-20T05:12:59.352Z,-3.13
2022-11-20T05:13:59.325Z,-3.14
2022-11-20T05:14:59.311Z,-3.14
2022-11-20T05:15:58.379Z,-3.14
2022-11-20T05:16:58.477Z,-3.14
2022-11-20T05:17:58.369Z,-3.16
2022-11-20T05:18:58.389Z,-3.16
2022-11-20T05:19:59.338Z,-3.17
2022-11-20T05:20:58.356Z,-3.17
2022-11-20T05:21:59.771Z,-3.19
2022-11-20T05:22:59.331Z,-3.19
2022-11-20T05:23:59.701Z,-3.19
2022-11-20T05:24:59.710Z,-3.20
2022-11-20T05:26:00.229Z,-3.20
2022-11-20T05:26:59.712Z,-3.21
2022-11-20T05:28:00.199Z,-3.22
2022-11-20T05:28:59.222Z,-3.22
2022-11-20T05:29:59.690Z,-3.24
2022-11-20T05:30:59.640Z,-3.24
2022-11-20T05:32:00.170Z,-3.23
2022-11-20T05:33:00.198Z,-3.23
2022-11-20T05:33:58.259Z,-3.23
2022-11-20T05:34:59.635Z,-3.22
2022-11-20T05:35:59.633Z,-3.22
2022-11-20T05:36:58.165Z,-3.22
2022-11-20T05:37:59.621Z,-3.22
2022-11-20T05:39:01.743Z,-3.22
2022-11-20T05:39:59.610Z,-3.22
2022-11-20T05:40:58.219Z,-3.24
2022-11-20T05:41:59.554Z,-3.25
2022-11-20T05:42:59.071Z,-3.25
2022-11-20T05:43:59.542Z,-3.25
2022-11-20T05:44:59.011Z,-3.27
2022-11-20T05:45:59.003Z,-3.28
2022-11-20T05:46:59.522Z,-3.29
2022-11-20T05:47:59.002Z,-3.29
2022-11-20T05:48:59.462Z,-3.30
2022-11-20T05:49:59.473Z,-3.32
2022-11-20T05:50:59.470Z,-3.32
2022-11-20T05:51:59.461Z,-3.33
2022-11-20T05:52:58.951Z,-3.33
2022-11-20T05:53:58.003Z,-3.33
2022-11-20T05:54:58.012Z,-3.31
2022-11-20T05:55:59.921Z,-3.32
2022-11-20T05:56:58.180Z,-3.32
2022-11-20T05:57:59.414Z,-3.31
2022-11-20T05:58:58.019Z,-3.32
2022-11-20T05:59:58.894Z,-3.31
2022-11-20T06:00:58.972Z,-3.31
2022-11-20T06:01:59.373Z,-3.32
2022-11-20T06:02:58.847Z,-3.31
2022-11-20T06:03:57.932Z,-3.32
2022-11-20T06:04:59.441Z,-3.31
2022-11-20T06:05:58.115Z,-3.31
2022-11-20T06:06:58.801Z,-3.30
2022-11-20T06:07:58.293Z,-3.30
2022-11-20T06:08:59.314Z,-3.30
2022-11-20T06:09:59.271Z,-3.30
2022-11-20T06:10:57.933Z,-3.30
2022-11-20T06:11:59.277Z,-3.30
2022-11-20T06:12:59.256Z,-3.29
2022-11-20T06:13:57.989Z,-3.29
2022-11-20T06:14:59.216Z,-3.29
2022-11-20T06:15:58.784Z,-3.30
2022-11-20T06:16:58.025Z,-3.30
2022-11-20T06:17:57.810Z,-3.30
2022-11-20T06:18:57.823Z,-3.31
2022-11-20T06:19:57.800Z,-3.31
2022-11-20T06:20:59.183Z,-3.30
2022-11-20T06:21:58.705Z,-3.31
2022-11-20T06:22:58.713Z,-3.30
2022-11-20T06:23:59.158Z,-3.30
2022-11-20T06:24:59.136Z,-3.29
2022-11-20T06:25:57.682Z,-3.29
2022-11-20T06:26:59.144Z,-3.29
2022-11-20T06:27:59.094Z,-3.29
2022-11-20T06:28:59.205Z,-3.29
2022-11-20T06:29:57.641Z,-3.29
2022-11-20T06:30:57.644Z,-3.30
2022-11-20T06:31:59.053Z,-3.30
2022-11-20T06:32:59.045Z,-3.30
2022-11-20T06:33:59.045Z,-3.31
2022-11-20T06:34:59.043Z,-3.32
2022-11-20T06:36:01.674Z,-3.32
2022-11-20T06:36:58.594Z,-3.32
2022-11-20T06:37:58.994Z,-3.32
2022-11-20T06:38:58.994Z,-3.33
2022-11-20T06:39:58.983Z,-3.33
2022-11-20T06:40:58.503Z,-3.33
2022-11-20T06:41:59.466Z,-3.33
2022-11-20T06:42:58.455Z,-3.32
2022-11-20T06:43:58.945Z,-3.31
2022-11-20T06:44:58.605Z,-3.30
2022-11-20T06:45:58.920Z,-3.29
2022-11-20T06:46:58.524Z,-3.29
2022-11-20T06:47:59.470Z,-3.29
2022-11-20T06:48:57.434Z,-3.28
2022-11-20T06:49:58.882Z,-3.28
2022-11-20T06:50:57.425Z,-3.28
2022-11-20T06:51:58.844Z,-3.28
2022-11-20T06:52:58.144Z,-3.28
2022-11-20T06:53:58.855Z,-3.27
2022-11-20T06:54:58.816Z,-3.27
2022-11-20T06:55:58.827Z,-3.26
2022-11-20T06:56:58.316Z,-3.26
2022-11-20T06:57:58.785Z,-3.26
2022-11-20T06:58:57.376Z,-3.26
2022-11-20T06:59:58.304Z,-3.25
2022-11-20T07:00:58.325Z,-3.25
2022-11-20T07:01:58.745Z,-3.24
2022-11-20T07:02:58.726Z,-3.24
2022-11-20T07:03:59.390Z,-3.23
2022-11-20T07:04:58.847Z,-3.22
2022-11-20T07:05:59.236Z,-3.21
2022-11-20T07:06:57.568Z,-3.20
2022-11-20T07:07:58.696Z,-3.21
2022-11-20T07:08:57.286Z,-3.20
2022-11-20T07:09:58.705Z,-3.18
2022-11-20T07:10:58.307Z,-3.17
2022-11-20T07:11:57.456Z,-3.16
2022-11-20T07:12:58.229Z,-3.15
2022-11-20T07:13:57.354Z,-3.15
2022-11-20T07:14:58.199Z,-3.13
2022-11-20T07:15:57.241Z,-3.11
2022-11-20T07:16:58.196Z,-3.11
2022-11-20T07:17:58.131Z,-3.10
2022-11-20T07:18:58.596Z,-3.08
2022-11-20T07:19:58.086Z,-3.09
2022-11-20T07:20:57.157Z,-3.08
2022-11-20T07:21:58.577Z,-3.06
2022-11-20T07:22:58.564Z,-3.04
2022-11-20T07:23:58.538Z,-3.02
2022-11-20T07:24:58.516Z,-3.00
2022-11-20T07:25:58.056Z,-2.97
2022-11-20T07:26:58.531Z,-2.94
2022-11-20T07:27:58.000Z,-2.90
2022-11-20T07:28:58.506Z,-2.87
2022-11-20T07:29:58.059Z,-2.84
2022-11-20T07:30:57.395Z,-2.80
2022-11-20T07:31:58.018Z,-2.76
2022-11-20T07:32:58.526Z,-2.73
2022-11-20T07:33:58.547Z,-2.70
2022-11-20T07:34:57.198Z,-2.66
2022-11-20T07:35:58.480Z,-2.61
2022-11-20T07:36:58.477Z,-2.58
2022-11-20T07:37:57.960Z,-2.55
2022-11-20T07:38:56.972Z,-2.51
2022-11-20T07:39:57.912Z,-2.47
2022-11-20T07:40:58.630Z,-2.41
2022-11-20T07:41:58.379Z,-2.38
2022-11-20T07:42:56.940Z,-2.33
2022-11-20T07:43:57.901Z,-2.28
2022-11-20T07:44:56.942Z,-2.23
2022-11-20T07:45:56.932Z,-2.18
2022-11-20T07:46:57.150Z,-2.15
2022-11-20T07:47:58.341Z,-2.10
2022-11-20T07:48:58.334Z,-2.06
2022-11-20T07:49:56.848Z,-2.01
2022-11-20T07:50:56.883Z,-1.96
2022-11-20T07:52:03.265Z,-1.92
2022-11-20T07:52:57.860Z,-1.84
2022-11-20T07:53:57.779Z,-1.69
2022-11-20T07:54:57.847Z,-1.39
2022-11-20T07:55:56.779Z,-0.93
2022-11-20T07:56:57.709Z,-0.45
2022-11-20T07:57:56.780Z,-0.03
2022-11-20T07:58:58.259Z,0.31
2022-11-20T07:59:58.200Z,0.64
2022-11-20T08:00:58.265Z,0.92
2022-11-20T08:01:58.650Z,1.19
2022-11-20T08:02:58.139Z,1.43
2022-11-20T08:03:58.849Z,1.64
2022-11-20T08:04:58.130Z,1.86
2022-11-20T08:05:57.599Z,2.05
2022-11-20T08:06:59.071Z,2.20
2022-11-20T08:07:58.090Z,2.30
2022-11-20T08:08:57.723Z,2.35
2022-11-20T08:09:58.043Z,2.33
2022-11-20T08:10:57.651Z,2.28
2022-11-20T08:11:57.522Z,2.21
2022-11-20T08:12:57.531Z,2.18
2022-11-20T08:13:58.011Z,2.13
2022-11-20T08:14:58.013Z,2.04
2022-11-20T08:15:57.543Z,2.06
2022-11-20T08:16:57.500Z,1.97
2022-11-20T08:18:28.814Z,1.89
2022-11-20T08:18:58.986Z,1.82
2022-11-20T08:19:57.930Z,1.83
2022-11-20T08:20:57.933Z,1.84
2022-11-20T08:21:57.922Z,1.80
2022-11-20T08:22:56.744Z,1.72
2022-11-20T08:23:57.931Z,1.67
2022-11-20T08:24:56.490Z,1.71
2022-11-20T08:25:57.428Z,1.73
2022-11-20T08:26:57.866Z,1.73
2022-11-20T08:28:00.379Z,1.65
2022-11-20T08:28:57.382Z,1.56
2022-11-20T08:29:57.341Z,1.48
2022-11-20T08:30:57.321Z,1.40
2022-11-20T08:31:57.323Z,1.31
2022-11-20T08:32:57.311Z,1.22
2022-11-20T08:33:57.845Z,1.13
2022-11-20T08:34:57.825Z,1.07
2022-11-20T08:35:57.274Z,1.04
2022-11-20T08:36:57.779Z,1.01
2022-11-20T08:37:57.274Z,1.00
2022-11-20T08:38:57.764Z,0.98
2022-11-20T08:39:57.785Z,0.96
2022-11-20T08:40:57.763Z,0.94
2022-11-20T08:41:57.213Z,0.95
2022-11-20T08:42:57.281Z,0.93
2022-11-20T08:43:56.293Z,0.93
2022-11-20T08:44:57.184Z,0.92
2022-11-20T08:45:56.236Z,0.94
2022-11-20T08:46:57.264Z,0.96
2022-11-20T08:47:57.154Z,0.96
2022-11-20T08:48:57.146Z,0.96
2022-11-20T08:49:57.136Z,1.00
2022-11-20T08:50:57.153Z,1.01
2022-11-20T08:51:57.133Z,1.03
2022-11-20T08:52:57.758Z,1.02
2022-11-20T08:53:58.154Z,1.03
2022-11-20T08:54:57.094Z,1.01
2022-11-20T08:55:56.171Z,1.00
2022-11-20T08:56:57.074Z,0.98
2022-11-20T08:57:57.098Z,0.96
2022-11-20T09:00:06.180Z,0.96
2022-11-20T09:00:58.640Z,0.97
2022-11-20T09:01:56.355Z,0.99
2022-11-20T09:02:57.219Z,1.01
2022-11-20T09:03:57.055Z,1.03
2022-11-20T09:04:57.796Z,1.04
2022-11-20T09:05:56.975Z,1.05
2022-11-20T09:06:57.000Z,1.09
2022-11-20T09:07:57.005Z,1.14
2022-11-20T09:08:56.077Z,1.15
2022-11-20T09:10:22.154Z,1.20
2022-11-20T09:10:58.055Z,1.26
2022-11-20T09:11:56.025Z,1.29
2022-11-20T09:12:56.027Z,1.30
2022-11-20T09:13:56.000Z,1.34
2022-11-20T09:14:56.868Z,1.39
2022-11-20T09:15:56.298Z,1.43
2022-11-20T09:16:56.975Z,1.48
2022-11-20T09:17:56.467Z,1.51
2022-11-20T09:19:20.200Z,1.56
2022-11-20T09:19:56.926Z,1.60
2022-11-20T09:20:56.867Z,1.64
2022-11-20T09:21:59.675Z,1.68
2022-11-20T09:22:56.905Z,1.72
2022-11-20T09:23:56.798Z,1.76
2022-11-20T09:24:55.877Z,1.79
2022-11-20T09:25:56.766Z,1.80
2022-11-20T09:26:57.018Z,1.81
2022-11-20T09:27:56.318Z,1.84
2022-11-20T09:28:58.059Z,1.87
2022-11-20T09:29:56.788Z,1.89
2022-11-20T09:30:56.377Z,1.95
2022-11-20T09:31:55.795Z,2.03
2022-11-20T09:32:57.192Z,2.08
2022-11-20T09:33:56.821Z,2.10
2022-11-20T09:34:56.942Z,2.17
2022-11-20T09:35:57.167Z,2.23
2022-11-20T09:36:56.848Z,2.27
2022-11-20T09:37:56.647Z,2.34
2022-11-20T09:38:56.628Z,2.37
2022-11-20T09:39:57.117Z,2.40
2022-11-20T09:40:56.747Z,2.47
2022-11-20T09:41:57.088Z,2.50
2022-11-20T09:42:56.588Z,2.55
2022-11-20T09:43:56.578Z,2.59
2022-11-20T09:44:56.561Z,2.66
2022-11-20T09:45:57.048Z,2.68
2022-11-20T09:46:56.654Z,2.72
2022-11-20T09:47:56.528Z,2.82
2022-11-20T09:48:57.018Z,2.90
2022-11-20T09:49:56.538Z,2.89
2022-11-20T09:50:57.179Z,2.90
2022-11-20T09:51:55.563Z,2.95
2022-11-20T09:52:57.518Z,3.01
2022-11-20T09:53:56.472Z,3.01
2022-11-20T09:54:56.479Z,3.06
2022-11-20T09:55:58.200Z,3.11
2022-11-20T09:56:56.439Z,3.15
2022-11-20T09:57:57.453Z,3.18
2022-11-20T09:58:57.540Z,3.24
2022-11-20T09:59:57.409Z,3.26
2022-11-20T10:00:56.462Z,3.32
2022-11-20T10:01:57.401Z,3.42
2022-11-20T10:02:56.377Z,3.47
2022-11-20T10:03:56.880Z,3.48
2022-11-20T10:04:57.022Z,3.56
2022-11-20T10:05:57.072Z,3.62
2022-11-20T10:07:30.149Z,3.69
2022-11-20T10:07:57.375Z,3.70
2022-11-20T10:08:56.321Z,3.67
2022-11-20T10:09:56.315Z,3.71
2022-11-20T10:10:56.355Z,3.72
2022-11-20T10:11:56.679Z,3.73
2022-11-20T10:12:55.512Z,3.71
2022-11-20T10:13:56.291Z,3.74
2022-11-20T10:14:56.954Z,3.73
2022-11-20T10:15:57.723Z,3.77
2022-11-20T10:16:56.270Z,3.84
2022-11-20T10:17:56.232Z,3.87
2022-11-20T10:18:56.747Z,3.94
2022-11-20T10:19:56.721Z,3.96
2022-11-20T10:20:57.295Z,4.00
2022-11-20T10:21:55.480Z,4.04
2022-11-20T10:22:57.287Z,4.10
2022-11-20T10:23:58.819Z,4.17
2022-11-20T10:24:55.639Z,4.18
2022-11-20T10:25:58.154Z,4.17
2022-11-20T10:26:55.504Z,4.20
2022-11-20T10:27:55.194Z,4.23
2022-11-20T10:28:59.897Z,4.23
2022-11-20T10:29:57.122Z,4.20
2022-11-20T10:30:56.094Z,4.15
2022-11-20T10:31:56.603Z,4.14
2022-11-20T10:32:56.593Z,4.12
2022-11-20T10:34:11.559Z,4.12
2022-11-20T10:34:56.175Z,4.11
2022-11-20T10:35:55.384Z,4.11
2022-11-20T10:36:56.086Z,4.11
2022-11-20T10:37:56.534Z,4.12
2022-11-20T10:38:56.016Z,4.11
2022-11-20T10:39:57.039Z,4.16
2022-11-20T10:40:56.562Z,4.26
2022-11-20T10:41:56.055Z,4.33
2022-11-20T10:43:00.471Z,4.40
2022-11-20T10:43:55.485Z,4.46
2022-11-20T10:44:57.730Z,4.48
2022-11-20T10:45:56.438Z,4.47
2022-11-20T10:46:56.115Z,4.42
2022-11-20T10:47:55.995Z,4.46
2022-11-20T10:48:56.985Z,4.48
2022-11-20T10:49:55.381Z,4.54
2022-11-20T10:50:59.294Z,4.70
2022-11-20T10:51:56.439Z,4.72
2022-11-20T10:52:54.966Z,4.66
2022-11-20T10:53:56.379Z,4.64
2022-11-20T10:54:55.846Z,4.60
2022-11-20T10:55:55.846Z,4.59
2022-11-20T10:56:55.887Z,4.54
2022-11-20T10:57:56.026Z,4.43
2022-11-20T10:58:56.327Z,4.36
2022-11-20T10:59:55.819Z,4.27
2022-11-20T11:00:56.302Z,4.23
2022-11-20T11:01:54.864Z,4.19
2022-11-20T11:02:55.817Z,4.15
2022-11-20T11:03:56.282Z,4.12
2022-11-20T11:04:55.817Z,4.10
2022-11-20T11:05:55.808Z,4.07
2022-11-20T11:06:55.750Z,4.09
2022-11-20T11:07:54.810Z,4.17
2022-11-20T11:08:54.817Z,4.28
2022-11-20T11:09:56.189Z,4.38
2022-11-20T11:10:56.258Z,4.50
2022-11-20T11:11:56.212Z,4.61
2022-11-20T11:12:54.738Z,4.69
2022-11-20T11:13:55.669Z,4.82
2022-11-20T11:14:56.159Z,4.93
2022-11-20T11:15:55.629Z,4.88
2022-11-20T11:16:56.188Z,4.76
2022-11-20T11:17:54.709Z,4.66
2022-11-20T11:18:55.619Z,4.61
2022-11-20T11:19:56.123Z,4.55
2022-11-20T11:20:55.618Z,4.45
2022-11-20T11:21:56.196Z,4.34
2022-11-20T11:22:56.180Z,4.26
2022-11-20T11:24:03.719Z,4.20
2022-11-20T11:24:57.044Z,4.15
2022-11-20T11:25:55.564Z,4.08
2022-11-20T11:26:55.500Z,4.04
2022-11-20T11:27:56.912Z,3.99
2022-11-20T11:28:55.187Z,3.95
2022-11-20T11:29:54.570Z,3.90
2022-11-20T11:30:55.540Z,3.84
2022-11-20T11:31:54.571Z,3.78
2022-11-20T11:32:55.363Z,3.74
2022-11-20T11:33:55.361Z,3.69
2022-11-20T11:34:55.354Z,3.65
2022-11-20T11:35:55.940Z,3.61
2022-11-20T11:36:54.499Z,3.58
2022-11-20T11:37:55.320Z,3.56
2022-11-20T11:38:55.392Z,3.56
2022-11-20T11:40:16.507Z,3.54
2022-11-20T11:40:56.499Z,3.55
2022-11-20T11:41:55.961Z,3.56
2022-11-20T11:42:55.873Z,3.58
2022-11-20T11:43:55.323Z,3.62
2022-11-20T11:44:54.414Z,3.65
2022-11-20T11:45:55.354Z,3.69
2022-11-20T11:46:55.425Z,3.74
2022-11-20T11:47:56.313Z,3.82
2022-11-20T11:48:55.803Z,3.89
2022-11-20T11:49:56.285Z,3.94
2022-11-20T11:50:55.776Z,3.99
2022-11-20T11:51:54.332Z,4.03
2022-11-20T11:52:55.303Z,4.06
2022-11-20T11:53:54.302Z,4.12
2022-11-20T11:54:55.704Z,4.17
2022-11-20T11:55:55.214Z,4.23
2022-11-20T11:56:54.303Z,4.30
2022-11-20T11:57:54.907Z,4.37
2022-11-20T11:58:54.364Z,4.45
2022-11-20T11:59:55.155Z,4.53
2022-11-20T12:00:55.165Z,4.61
2022-11-20T12:01:55.716Z,4.68
2022-11-20T12:02:56.134Z,4.76
2022-11-20T12:03:56.124Z,4.85
2022-11-20T12:04:55.631Z,4.97
2022-11-20T12:05:55.593Z,5.08
2022-11-20T12:06:55.065Z,5.21
2022-11-20T12:07:54.513Z,5.34
2022-11-20T12:08:55.231Z,5.46
2022-11-20T12:09:55.125Z,5.56
2022-11-20T12:10:56.126Z,5.64
2022-11-20T12:11:54.135Z,5.73
2022-11-20T12:12:54.224Z,5.79
2022-11-20T12:13:56.016Z,5.87
2022-11-20T12:14:55.545Z,5.94
2022-11-20T12:15:55.023Z,6.02
2022-11-20T12:16:55.026Z,6.09
2022-11-20T12:17:55.969Z,6.17
2022-11-20T12:18:54.977Z,6.25
2022-11-20T12:19:54.948Z,6.32
2022-11-20T12:20:54.988Z,6.41
2022-11-20T12:21:58.476Z,6.50
2022-11-20T12:22:56.446Z,6.56
2022-11-20T12:23:55.924Z,6.62
2022-11-20T12:24:56.031Z,6.68
2022-11-20T12:25:55.897Z,6.74
2022-11-20T12:26:54.877Z,6.78
2022-11-20T12:27:55.757Z,6.84
2022-11-20T12:28:55.967Z,6.89
2022-11-20T12:29:55.870Z,6.91
2022-11-20T12:30:55.922Z,6.93
2022-11-20T12:31:54.838Z,6.97
2022-11-20T12:32:53.878Z,7.00
2022-11-20T12:33:54.798Z,7.00
2022-11-20T12:34:53.892Z,7.01
2022-11-20T12:35:54.758Z,7.00
2022-11-20T12:36:54.748Z,6.99
2022-11-20T12:37:56.841Z,6.99
2022-11-20T12:39:08.996Z,7.00
2022-11-20T12:39:55.280Z,7.00
2022-11-20T12:40:55.074Z,6.99
2022-11-20T12:41:55.710Z,6.96
2022-11-20T12:42:53.833Z,6.94
2022-11-20T12:43:53.748Z,6.93
2022-11-20T12:44:55.191Z,6.93
2022-11-20T12:45:55.173Z,6.92
2022-11-20T12:46:56.138Z,6.92
2022-11-20T12:47:55.175Z,6.92
2022-11-20T12:48:53.709Z,6.90
2022-11-20T12:49:53.767Z,6.89
2022-11-20T12:51:56.152Z,6.87
2022-11-20T12:52:54.702Z,6.87
2022-11-20T12:53:54.684Z,6.87
2022-11-20T12:54:54.664Z,6.87
2022-11-20T12:55:53.621Z,6.86
2022-11-20T12:56:53.702Z,6.85
2022-11-20T12:57:55.280Z,6.85
2022-11-20T12:58:54.682Z,6.83
2022-11-20T12:59:53.652Z,6.81
2022-11-20T13:00:55.068Z,6.80
2022-11-20T13:01:53.628Z,6.77
2022-11-20T13:02:54.990Z,6.73
2022-11-20T13:03:53.663Z,6.70